sensor_id;sensor_type;location;lat;lon;timestamp;pressure;altitude;pressure_sealevel;temperature;humidity
50226;BME280;36113;50.742;6.432;2023-06-24T00:01:19;99683.69;;;18.44;65.87
50226;BME280;36113;50.742;6.432;2023-06-24T00:03:44;99676.41;;;18.34;66.51
50226;BME280;36113;50.742;6.432;2023-06-24T00:06:12;99662.75;;;18.29;66.14
50226;BME280;36113;50.742;6.432;2023-06-24T00:08:44;99640.69;;;18.15;66.27
50226;BME280;36113;50.742;6.432;2023-06-24T00:11:10;99675.50;;;18.25;67.37
50226;BME280;36113;50.742;6.432;2023-06-24T00:13:35;99679.22;;;18.15;67.73
50226;BME280;36113;50.742;6.432;2023-06-24T00:16:01;99631.28;;;17.64;68.88
50226;BME280;36113;50.742;6.432;2023-06-24T00:18:26;99676.47;;;17.77;69.44
50226;BME280;36113;50.742;6.432;2023-06-24T00:20:55;99664.88;;;17.61;69.86
50226;BME280;36113;50.742;6.432;2023-06-24T00:23:22;99675.06;;;17.61;69.90
50226;BME280;36113;50.742;6.432;2023-06-24T00:25:50;99638.88;;;17.34;69.83
50226;BME280;36113;50.742;6.432;2023-06-24T00:28:15;99671.56;;;17.55;70.22
50226;BME280;36113;50.742;6.432;2023-06-24T00:30:41;99663.94;;;17.52;70.12
50226;BME280;36113;50.742;6.432;2023-06-24T00:33:06;99669.19;;;17.48;70.47
50226;BME280;36113;50.742;6.432;2023-06-24T00:35:34;99673.75;;;17.58;70.37
50226;BME280;36113;50.742;6.432;2023-06-24T00:37:59;99670.22;;;17.52;70.88
50226;BME280;36113;50.742;6.432;2023-06-24T00:40:24;99639.16;;;17.33;70.38
50226;BME280;36113;50.742;6.432;2023-06-24T00:42:50;99652.50;;;17.45;70.37
50226;BME280;36113;50.742;6.432;2023-06-24T00:45:15;99663.47;;;17.45;70.95
50226;BME280;36113;50.742;6.432;2023-06-24T00:47:43;99668.13;;;17.44;70.85
50226;BME280;36113;50.742;6.432;2023-06-24T00:50:09;99627.81;;;17.21;70.42
50226;BME280;36113;50.742;6.432;2023-06-24T00:52:37;99664.13;;;17.55;69.87
50226;BME280;36113;50.742;6.432;2023-06-24T00:55:07;99667.56;;;17.66;68.91
50226;BME280;36113;50.742;6.432;2023-06-24T00:57:33;99631.75;;;17.52;68.59
50226;BME280;36113;50.742;6.432;2023-06-24T00:59:59;99630.56;;;17.58;68.01
50226;BME280;36113;50.742;6.432;2023-06-24T01:02:25;99661.81;;;17.87;67.69
50226;BME280;36113;50.742;6.432;2023-06-24T01:04:53;99655.69;;;17.90;67.41
50226;BME280;36113;50.742;6.432;2023-06-24T01:07:19;99655.53;;;18.00;67.19
50226;BME280;36113;50.742;6.432;2023-06-24T01:09:45;99669.63;;;18.12;66.96
50226;BME280;36113;50.742;6.432;2023-06-24T01:12:10;99656.03;;;18.02;66.54
50226;BME280;36113;50.742;6.432;2023-06-24T01:14:35;99673.50;;;18.11;66.88
50226;BME280;36113;50.742;6.432;2023-06-24T01:17:30;99672.19;;;18.09;66.43
50226;BME280;36113;50.742;6.432;2023-06-24T01:27:52;99650.69;;;17.73;69.58
50226;BME280;36113;50.742;6.432;2023-06-24T01:33:30;99658.47;;;17.47;71.16
50226;BME280;36113;50.742;6.432;2023-06-24T01:35:58;99653.28;;;17.26;72.01
50226;BME280;36113;50.742;6.432;2023-06-24T01:38:31;99650.34;;;17.17;71.81
50226;BME280;36113;50.742;6.432;2023-06-24T01:41:03;99630.34;;;16.93;72.13
50226;BME280;36113;50.742;6.432;2023-06-24T01:43:32;99650.06;;;17.19;71.71
50226;BME280;36113;50.742;6.432;2023-06-24T01:45:59;99649.63;;;17.12;71.59
50226;BME280;36113;50.742;6.432;2023-06-24T01:48:27;99605.41;;;16.89;71.65
50226;BME280;36113;50.742;6.432;2023-06-24T01:51:02;99654.69;;;17.24;71.50
50226;BME280;36113;50.742;6.432;2023-06-24T01:53:33;99646.50;;;17.19;72.16
50226;BME280;36113;50.742;6.432;2023-06-24T01:56:00;99651.25;;;17.13;71.49
50226;BME280;36113;50.742;6.432;2023-06-24T01:58:27;99651.84;;;16.86;72.55
50226;BME280;36113;50.742;6.432;2023-06-24T02:00:53;99653.84;;;16.80;72.54
50226;BME280;36113;50.742;6.432;2023-06-24T02:03:19;99602.28;;;16.48;72.59
50226;BME280;36113;50.742;6.432;2023-06-24T02:05:47;99659.31;;;16.80;72.29
50226;BME280;36113;50.742;6.432;2023-06-24T02:08:14;99652.66;;;16.86;72.18
50226;BME280;36113;50.742;6.432;2023-06-24T02:10:41;99651.50;;;16.92;71.46
50226;BME280;36113;50.742;6.432;2023-06-24T02:13:09;99652.41;;;17.07;70.84
50226;BME280;36113;50.742;6.432;2023-06-24T02:15:35;99649.25;;;17.19;70.31
50226;BME280;36113;50.742;6.432;2023-06-24T02:18:01;99644.66;;;17.33;69.89
50226;BME280;36113;50.742;6.432;2023-06-24T02:20:31;99647.19;;;17.48;69.36
50226;BME280;36113;50.742;6.432;2023-06-24T02:22:57;99607.84;;;17.34;68.98
50226;BME280;36113;50.742;6.432;2023-06-24T02:25:26;99647.25;;;17.62;68.96
50226;BME280;36113;50.742;6.432;2023-06-24T02:27:52;99603.06;;;17.40;68.82
50226;BME280;36113;50.742;6.432;2023-06-24T02:30:19;99643.66;;;17.67;68.85
50226;BME280;36113;50.742;6.432;2023-06-24T02:32:45;99599.13;;;17.46;68.66
50226;BME280;36113;50.742;6.432;2023-06-24T02:35:11;99642.44;;;17.73;68.78
50226;BME280;36113;50.742;6.432;2023-06-24T02:37:37;99641.00;;;17.75;68.46
50226;BME280;36113;50.742;6.432;2023-06-24T02:40:03;99637.03;;;17.68;68.90
50226;BME280;36113;50.742;6.432;2023-06-24T02:42:30;99629.28;;;17.70;68.54
50226;BME280;36113;50.742;6.432;2023-06-24T02:44:56;99650.78;;;17.87;68.37
50226;BME280;36113;50.742;6.432;2023-06-24T02:47:22;99607.66;;;17.63;68.32
50226;BME280;36113;50.742;6.432;2023-06-24T02:49:49;99642.31;;;17.83;68.25
50226;BME280;36113;50.742;6.432;2023-06-24T02:52:16;99652.41;;;17.88;68.37
50226;BME280;36113;50.742;6.432;2023-06-24T02:54:41;99583.44;;;17.46;68.06
50226;BME280;36113;50.742;6.432;2023-06-24T02:57:08;99647.44;;;17.90;68.09
50226;BME280;36113;50.742;6.432;2023-06-24T02:59:33;99627.06;;;17.72;68.03
50226;BME280;36113;50.742;6.432;2023-06-24T03:01:59;99613.41;;;17.67;68.33
50226;BME280;36113;50.742;6.432;2023-06-24T03:04:26;99588.06;;;17.51;68.25
50226;BME280;36113;50.742;6.432;2023-06-24T03:06:51;99639.63;;;17.78;68.10
50226;BME280;36113;50.742;6.432;2023-06-24T03:09:18;99632.03;;;17.70;68.54
50226;BME280;36113;50.742;6.432;2023-06-24T03:11:44;99651.91;;;17.86;68.11
50226;BME280;36113;50.742;6.432;2023-06-24T03:14:10;99645.59;;;17.85;68.52
50226;BME280;36113;50.742;6.432;2023-06-24T03:16:36;99645.78;;;17.89;68.26
50226;BME280;36113;50.742;6.432;2023-06-24T03:19:03;99664.97;;;17.94;68.60
50226;BME280;36113;50.742;6.432;2023-06-24T03:21:29;99663.31;;;17.93;68.43
50226;BME280;36113;50.742;6.432;2023-06-24T03:23:54;99647.72;;;17.88;68.98
50226;BME280;36113;50.742;6.432;2023-06-24T03:26:20;99659.84;;;17.87;69.02
50226;BME280;36113;50.742;6.432;2023-06-24T03:28:45;99657.31;;;17.91;69.04
50226;BME280;36113;50.742;6.432;2023-06-24T03:31:11;99662.81;;;17.91;69.56
50226;BME280;36113;50.742;6.432;2023-06-24T03:33:36;99623.88;;;17.65;69.44
50226;BME280;36113;50.742;6.432;2023-06-24T03:36:02;99639.63;;;17.78;69.61
50226;BME280;36113;50.742;6.432;2023-06-24T03:38:27;99679.44;;;17.99;70.14
50226;BME280;36113;50.742;6.432;2023-06-24T03:40:53;99671.72;;;18.02;70.13
50226;BME280;36113;50.742;6.432;2023-06-24T03:43:18;99675.22;;;18.07;69.99
50226;BME280;36113;50.742;6.432;2023-06-24T03:45:44;99675.75;;;18.09;70.13
50226;BME280;36113;50.742;6.432;2023-06-24T03:48:09;99675.34;;;18.16;70.28
50226;BME280;36113;50.742;6.432;2023-06-24T03:50:35;99677.59;;;18.14;70.50
50226;BME280;36113;50.742;6.432;2023-06-24T03:53:00;99674.97;;;18.23;70.83
50226;BME280;36113;50.742;6.432;2023-06-24T03:55:25;99667.53;;;18.23;71.13
50226;BME280;36113;50.742;6.432;2023-06-24T03:57:51;99675.28;;;18.35;70.82
50226;BME280;36113;50.742;6.432;2023-06-24T04:00:16;99670.22;;;18.42;70.54
50226;BME280;36113;50.742;6.432;2023-06-24T04:02:43;99660.84;;;18.43;70.36
50226;BME280;36113;50.742;6.432;2023-06-24T04:05:09;99655.94;;;18.40;70.23
50226;BME280;36113;50.742;6.432;2023-06-24T04:07:35;99590.00;;;18.02;70.05
50226;BME280;36113;50.742;6.432;2023-06-24T04:10:02;99670.53;;;18.54;70.14
50226;BME280;36113;50.742;6.432;2023-06-24T04:12:27;99651.84;;;18.37;69.94
50226;BME280;36113;50.742;6.432;2023-06-24T04:14:52;99674.50;;;18.48;69.92
50226;BME280;36113;50.742;6.432;2023-06-24T04:17:18;99674.94;;;18.55;69.60
50226;BME280;36113;50.742;6.432;2023-06-24T04:19:43;99681.47;;;18.59;69.67
50226;BME280;36113;50.742;6.432;2023-06-24T04:22:09;99687.81;;;18.60;69.64
50226;BME280;36113;50.742;6.432;2023-06-24T04:24:34;99687.09;;;18.68;69.46
50226;BME280;36113;50.742;6.432;2023-06-24T04:27:00;99674.75;;;18.66;69.04
50226;BME280;36113;50.742;6.432;2023-06-24T04:29:25;99694.78;;;18.85;68.49
50226;BME280;36113;50.742;6.432;2023-06-24T04:31:51;99704.78;;;18.95;68.33
50226;BME280;36113;50.742;6.432;2023-06-24T04:34:16;99701.03;;;18.91;68.48
50226;BME280;36113;50.742;6.432;2023-06-24T04:36:41;99690.94;;;19.00;68.06
50226;BME280;36113;50.742;6.432;2023-06-24T04:39:07;99698.38;;;19.13;67.80
50226;BME280;36113;50.742;6.432;2023-06-24T04:41:33;99686.63;;;19.08;67.54
50226;BME280;36113;50.742;6.432;2023-06-24T04:43:58;99690.94;;;19.14;67.35
50226;BME280;36113;50.742;6.432;2023-06-24T04:46:23;99683.75;;;19.13;67.60
50226;BME280;36113;50.742;6.432;2023-06-24T04:48:49;99694.88;;;19.21;67.43
50226;BME280;36113;50.742;6.432;2023-06-24T04:51:14;99689.88;;;19.23;66.86
50226;BME280;36113;50.742;6.432;2023-06-24T04:53:40;99690.19;;;19.36;66.77
50226;BME280;36113;50.742;6.432;2023-06-24T04:56:05;99664.38;;;19.18;66.74
50226;BME280;36113;50.742;6.432;2023-06-24T04:58:31;99665.06;;;19.23;66.39
50226;BME280;36113;50.742;6.432;2023-06-24T05:00:56;99692.53;;;19.42;66.29
50226;BME280;36113;50.742;6.432;2023-06-24T05:03:22;99698.44;;;19.50;66.55
50226;BME280;36113;50.742;6.432;2023-06-24T05:05:47;99690.97;;;19.50;65.84
50226;BME280;36113;50.742;6.432;2023-06-24T05:08:13;99695.53;;;19.69;65.61
50226;BME280;36113;50.742;6.432;2023-06-24T05:10:38;99694.94;;;19.72;65.45
50226;BME280;36113;50.742;6.432;2023-06-24T05:13:04;99699.38;;;19.95;65.09
50226;BME280;36113;50.742;6.432;2023-06-24T05:15:29;99696.63;;;19.95;64.77
50226;BME280;36113;50.742;6.432;2023-06-24T05:17:55;99641.81;;;19.66;64.74
50226;BME280;36113;50.742;6.432;2023-06-24T05:20:21;99701.94;;;20.14;64.69
50226;BME280;36113;50.742;6.432;2023-06-24T05:22:46;99699.44;;;20.26;64.66
50226;BME280;36113;50.742;6.432;2023-06-24T05:25:12;99693.28;;;20.30;63.79
50226;BME280;36113;50.742;6.432;2023-06-24T05:27:37;99692.34;;;20.34;64.36
50226;BME280;36113;50.742;6.432;2023-06-24T05:30:03;99693.34;;;20.38;64.06
50226;BME280;36113;50.742;6.432;2023-06-24T05:32:28;99696.16;;;20.47;63.38
50226;BME280;36113;50.742;6.432;2023-06-24T05:34:53;99696.94;;;20.61;63.56
50226;BME280;36113;50.742;6.432;2023-06-24T05:37:19;99675.94;;;20.60;62.64
50226;BME280;36113;50.742;6.432;2023-06-24T05:39:44;99688.56;;;20.75;63.01
50226;BME280;36113;50.742;6.432;2023-06-24T05:42:09;99697.19;;;20.82;62.59
50226;BME280;36113;50.742;6.432;2023-06-24T05:44:35;99658.31;;;20.79;62.59
50226;BME280;36113;50.742;6.432;2023-06-24T05:47:00;99690.50;;;21.15;62.50
50226;BME280;36113;50.742;6.432;2023-06-24T05:49:25;99698.63;;;21.20;61.84
50226;BME280;36113;50.742;6.432;2023-06-24T05:51:51;99692.63;;;21.26;62.11
50226;BME280;36113;50.742;6.432;2023-06-24T05:54:16;99703.47;;;21.45;61.27
50226;BME280;36113;50.742;6.432;2023-06-24T05:56:41;99660.59;;;21.25;60.39
50226;BME280;36113;50.742;6.432;2023-06-24T05:59:06;99701.16;;;21.47;61.07
50226;BME280;36113;50.742;6.432;2023-06-24T06:01:32;99673.78;;;21.28;61.34
50226;BME280;36113;50.742;6.432;2023-06-24T06:03:57;99701.66;;;21.58;61.31
50226;BME280;36113;50.742;6.432;2023-06-24T06:06:22;99692.88;;;21.65;60.66
50226;BME280;36113;50.742;6.432;2023-06-24T06:08:48;99666.19;;;21.52;59.95
50226;BME280;36113;50.742;6.432;2023-06-24T06:11:13;99698.78;;;21.72;60.34
50226;BME280;36113;50.742;6.432;2023-06-24T06:13:38;99659.84;;;21.42;60.56
50226;BME280;36113;50.742;6.432;2023-06-24T06:16:04;99703.00;;;21.69;60.46
50226;BME280;36113;50.742;6.432;2023-06-24T06:18:29;99665.38;;;21.51;59.34
50226;BME280;36113;50.742;6.432;2023-06-24T06:20:54;99695.69;;;21.82;59.58
50226;BME280;36113;50.742;6.432;2023-06-24T06:23:20;99710.50;;;21.95;59.35
50226;BME280;36113;50.742;6.432;2023-06-24T06:25:45;99650.56;;;21.56;58.88
50226;BME280;36113;50.742;6.432;2023-06-24T06:28:11;99685.09;;;21.84;59.25
50226;BME280;36113;50.742;6.432;2023-06-24T06:30:36;99678.56;;;21.89;58.61
50226;BME280;36113;50.742;6.432;2023-06-24T06:33:01;99715.56;;;22.28;58.88
50226;BME280;36113;50.742;6.432;2023-06-24T06:35:27;99704.97;;;22.39;57.64
50226;BME280;36113;50.742;6.432;2023-06-24T06:37:52;99707.53;;;22.61;57.55
50226;BME280;36113;50.742;6.432;2023-06-24T06:40:19;99704.56;;;22.66;57.29
50226;BME280;36113;50.742;6.432;2023-06-24T06:42:45;99721.31;;;22.87;56.87
50226;BME280;36113;50.742;6.432;2023-06-24T06:45:10;99697.19;;;22.79;56.21
50226;BME280;36113;50.742;6.432;2023-06-24T06:47:36;99713.59;;;22.93;55.14
50226;BME280;36113;50.742;6.432;2023-06-24T06:50:01;99728.44;;;22.97;55.47
50226;BME280;36113;50.742;6.432;2023-06-24T06:52:26;99726.72;;;23.22;55.56
50226;BME280;36113;50.742;6.432;2023-06-24T06:54:53;99727.78;;;23.39;54.78
50226;BME280;36113;50.742;6.432;2023-06-24T06:57:19;99717.03;;;23.37;54.20
50226;BME280;36113;50.742;6.432;2023-06-24T06:59:44;99729.84;;;23.50;54.15
50226;BME280;36113;50.742;6.432;2023-06-24T07:02:09;99732.09;;;23.57;54.16
50226;BME280;36113;50.742;6.432;2023-06-24T07:04:35;99723.28;;;23.55;54.41
50226;BME280;36113;50.742;6.432;2023-06-24T07:07:00;99731.72;;;23.67;54.10
50226;BME280;36113;50.742;6.432;2023-06-24T07:09:25;99724.63;;;23.49;53.21
50226;BME280;36113;50.742;6.432;2023-06-24T07:11:51;99727.88;;;23.51;53.02
50226;BME280;36113;50.742;6.432;2023-06-24T07:14:16;99736.56;;;23.70;53.28
50226;BME280;36113;50.742;6.432;2023-06-24T07:16:41;99726.44;;;23.74;51.43
50226;BME280;36113;50.742;6.432;2023-06-24T07:19:06;99730.44;;;23.86;52.48
50226;BME280;36113;50.742;6.432;2023-06-24T07:21:32;99690.88;;;23.89;52.38
50226;BME280;36113;50.742;6.432;2023-06-24T07:23:57;99729.31;;;24.08;52.07
50226;BME280;36113;50.742;6.432;2023-06-24T07:26:22;99727.13;;;23.92;51.42
50226;BME280;36113;50.742;6.432;2023-06-24T07:28:48;99727.94;;;23.93;52.11
50226;BME280;36113;50.742;6.432;2023-06-24T07:31:13;99696.13;;;23.90;51.51
50226;BME280;36113;50.742;6.432;2023-06-24T07:33:38;99735.81;;;24.12;51.47
50226;BME280;36113;50.742;6.432;2023-06-24T07:36:04;99701.81;;;23.64;51.84
50226;BME280;36113;50.742;6.432;2023-06-24T07:38:29;99714.81;;;23.81;52.61
50226;BME280;36113;50.742;6.432;2023-06-24T07:40:55;99701.75;;;23.82;51.64
50226;BME280;36113;50.742;6.432;2023-06-24T07:43:20;99724.50;;;23.96;51.88
50226;BME280;36113;50.742;6.432;2023-06-24T07:45:46;99734.38;;;24.06;51.42
50226;BME280;36113;50.742;6.432;2023-06-24T07:48:11;99701.00;;;23.93;50.33
50226;BME280;36113;50.742;6.432;2023-06-24T07:50:38;99680.00;;;23.33;51.99
50226;BME280;36113;50.742;6.432;2023-06-24T07:53:04;99721.78;;;23.87;52.07
50226;BME280;36113;50.742;6.432;2023-06-24T07:55:29;99717.44;;;24.20;52.01
50226;BME280;36113;50.742;6.432;2023-06-24T07:57:54;99728.28;;;24.33;50.67
50226;BME280;36113;50.742;6.432;2023-06-24T08:00:20;99722.66;;;24.21;50.94
50226;BME280;36113;50.742;6.432;2023-06-24T08:02:45;99720.13;;;24.28;51.05
50226;BME280;36113;50.742;6.432;2023-06-24T08:05:10;99714.78;;;24.23;51.66
50226;BME280;36113;50.742;6.432;2023-06-24T08:07:37;99733.06;;;24.24;51.83
50226;BME280;36113;50.742;6.432;2023-06-24T08:10:03;99703.28;;;24.12;51.93
50226;BME280;36113;50.742;6.432;2023-06-24T08:12:28;99713.41;;;24.50;51.21
50226;BME280;36113;50.742;6.432;2023-06-24T08:14:53;99694.38;;;24.73;51.87
50226;BME280;36113;50.742;6.432;2023-06-24T08:17:19;99712.47;;;24.92;50.94
50226;BME280;36113;50.742;6.432;2023-06-24T08:19:44;99704.34;;;24.87;48.92
50226;BME280;36113;50.742;6.432;2023-06-24T08:22:09;99721.34;;;24.73;49.33
50226;BME280;36113;50.742;6.432;2023-06-24T08:24:36;99718.53;;;24.61;48.42
50226;BME280;36113;50.742;6.432;2023-06-24T08:27:02;99707.66;;;24.68;48.09
50226;BME280;36113;50.742;6.432;2023-06-24T08:29:27;99709.00;;;25.07;49.06
50226;BME280;36113;50.742;6.432;2023-06-24T08:31:52;99707.41;;;25.43;47.93
50226;BME280;36113;50.742;6.432;2023-06-24T08:34:18;99694.28;;;25.44;47.57
50226;BME280;36113;50.742;6.432;2023-06-24T08:36:43;99694.88;;;25.49;46.85
50226;BME280;36113;50.742;6.432;2023-06-24T08:39:08;99712.78;;;25.76;47.17
50226;BME280;36113;50.742;6.432;2023-06-24T08:41:34;99683.69;;;25.74;45.59
50226;BME280;36113;50.742;6.432;2023-06-24T08:43:59;99701.91;;;25.71;44.47
50226;BME280;36113;50.742;6.432;2023-06-24T08:46:25;99708.25;;;25.84;45.49
50226;BME280;36113;50.742;6.432;2023-06-24T08:49:18;99701.44;;;25.69;43.36
50226;BME280;36113;50.742;6.432;2023-06-24T08:51:44;99707.41;;;25.31;44.38
50226;BME280;36113;50.742;6.432;2023-06-24T08:54:11;99711.88;;;25.72;45.40
50226;BME280;36113;50.742;6.432;2023-06-24T08:56:37;99716.56;;;26.09;44.69
50226;BME280;36113;50.742;6.432;2023-06-24T08:59:05;99715.06;;;26.39;43.49
50226;BME280;36113;50.742;6.432;2023-06-24T09:01:31;99709.09;;;26.41;42.59
50226;BME280;36113;50.742;6.432;2023-06-24T09:03:56;99703.75;;;26.48;41.48
50226;BME280;36113;50.742;6.432;2023-06-24T09:06:21;99698.22;;;26.08;40.89
50226;BME280;36113;50.742;6.432;2023-06-24T09:08:56;99686.91;;;26.16;43.22
50226;BME280;36113;50.742;6.432;2023-06-24T09:11:25;99692.38;;;26.41;42.56
50226;BME280;36113;50.742;6.432;2023-06-24T09:13:58;99655.47;;;26.16;41.27
50226;BME280;36113;50.742;6.432;2023-06-24T09:16:25;99706.16;;;26.50;41.16
50226;BME280;36113;50.742;6.432;2023-06-24T09:18:52;99679.16;;;26.66;41.41
50226;BME280;36113;50.742;6.432;2023-06-24T09:21:27;99689.69;;;26.73;40.33
50226;BME280;36113;50.742;6.432;2023-06-24T09:23:56;99664.78;;;26.08;41.15
50226;BME280;36113;50.742;6.432;2023-06-24T09:26:26;99690.03;;;25.87;41.21
50226;BME280;36113;50.742;6.432;2023-06-24T09:28:52;99690.44;;;25.73;41.35
50226;BME280;36113;50.742;6.432;2023-06-24T09:31:18;99692.75;;;25.58;42.46
50226;BME280;36113;50.742;6.432;2023-06-24T09:33:44;99685.47;;;25.42;41.46
50226;BME280;36113;50.742;6.432;2023-06-24T09:36:14;99681.06;;;25.53;40.04
50226;BME280;36113;50.742;6.432;2023-06-24T09:38:41;99682.06;;;25.73;40.02
50226;BME280;36113;50.742;6.432;2023-06-24T09:41:08;99659.34;;;25.58;39.63
50226;BME280;36113;50.742;6.432;2023-06-24T09:43:37;99683.03;;;25.52;39.68
50226;BME280;36113;50.742;6.432;2023-06-24T09:46:07;99671.22;;;25.43;39.57
50226;BME280;36113;50.742;6.432;2023-06-24T09:48:32;99672.34;;;25.54;38.17
50226;BME280;36113;50.742;6.432;2023-06-24T09:51:03;99622.53;;;25.77;39.65
50226;BME280;36113;50.742;6.432;2023-06-24T09:53:33;99663.81;;;26.16;37.16
50226;BME280;36113;50.742;6.432;2023-06-24T09:56:00;99646.78;;;26.33;37.40
50226;BME280;36113;50.742;6.432;2023-06-24T09:58:26;99634.69;;;26.57;36.87
50226;BME280;36113;50.742;6.432;2023-06-24T10:00:54;99646.91;;;26.53;37.63
50226;BME280;36113;50.742;6.432;2023-06-24T10:03:20;99662.59;;;26.73;37.05
50226;BME280;36113;50.742;6.432;2023-06-24T10:05:46;99664.84;;;26.83;35.73
50226;BME280;36113;50.742;6.432;2023-06-24T10:08:13;99631.13;;;26.57;34.97
50226;BME280;36113;50.742;6.432;2023-06-24T10:10:39;99660.09;;;26.84;35.70
50226;BME280;36113;50.742;6.432;2023-06-24T10:13:04;99626.69;;;26.72;35.41
50226;BME280;36113;50.742;6.432;2023-06-24T10:15:29;99654.31;;;26.77;34.93
50226;BME280;36113;50.742;6.432;2023-06-24T10:17:55;99662.16;;;26.71;36.50
50226;BME280;36113;50.742;6.432;2023-06-24T10:20:24;99653.41;;;26.89;35.31
50226;BME280;36113;50.742;6.432;2023-06-24T10:22:53;99636.50;;;26.97;35.50
50226;BME280;36113;50.742;6.432;2023-06-24T10:25:18;99635.84;;;27.04;33.56
50226;BME280;36113;50.742;6.432;2023-06-24T10:27:44;99648.56;;;27.01;33.06
50226;BME280;36113;50.742;6.432;2023-06-24T10:30:19;99650.78;;;27.12;34.53
50226;BME280;36113;50.742;6.432;2023-06-24T10:32:51;99641.75;;;27.18;34.84
50226;BME280;36113;50.742;6.432;2023-06-24T10:35:24;99577.28;;;26.72;33.40
50226;BME280;36113;50.742;6.432;2023-06-24T10:37:58;99583.94;;;26.68;32.03
50226;BME280;36113;50.742;6.432;2023-06-24T10:40:43;99621.09;;;26.88;32.93
50226;BME280;36113;50.742;6.432;2023-06-24T10:45:58;99619.16;;;27.39;32.62
50226;BME280;36113;50.742;6.432;2023-06-24T10:48:24;99628.34;;;27.59;33.52
50226;BME280;36113;50.742;6.432;2023-06-24T10:50:50;99591.03;;;27.48;32.66
50226;BME280;36113;50.742;6.432;2023-06-24T10:53:16;99623.34;;;27.69;32.13
50226;BME280;36113;50.742;6.432;2023-06-24T10:55:44;99615.50;;;27.55;31.26
50226;BME280;36113;50.742;6.432;2023-06-24T10:58:11;99614.16;;;27.49;31.54
50226;BME280;36113;50.742;6.432;2023-06-24T11:00:38;99603.44;;;27.51;31.14
50226;BME280;36113;50.742;6.432;2023-06-24T11:03:13;99579.47;;;27.50;31.72
50226;BME280;36113;50.742;6.432;2023-06-24T11:05:43;99579.63;;;27.57;31.38
50226;BME280;36113;50.742;6.432;2023-06-24T11:08:09;99597.91;;;27.74;30.55
50226;BME280;36113;50.742;6.432;2023-06-24T11:10:48;99536.50;;;27.35;31.55
50226;BME280;36113;50.742;6.432;2023-06-24T11:13:14;99607.72;;;27.83;31.13
50226;BME280;36113;50.742;6.432;2023-06-24T11:15:40;99609.47;;;27.72;31.52
50226;BME280;36113;50.742;6.432;2023-06-24T11:18:08;99572.84;;;27.58;30.93
50226;BME280;36113;50.742;6.432;2023-06-24T11:20:35;99569.53;;;27.72;31.92
50226;BME280;36113;50.742;6.432;2023-06-24T11:23:01;99582.47;;;27.60;30.26
50226;BME280;36113;50.742;6.432;2023-06-24T11:25:26;99577.78;;;27.45;30.99
50226;BME280;36113;50.742;6.432;2023-06-24T11:27:52;99552.19;;;27.62;31.50
50226;BME280;36113;50.742;6.432;2023-06-24T11:30:20;99564.63;;;27.84;30.84
50226;BME280;36113;50.742;6.432;2023-06-24T11:32:46;99564.00;;;28.14;31.85
50226;BME280;36113;50.742;6.432;2023-06-24T11:35:13;99527.72;;;27.95;29.65
50226;BME280;36113;50.742;6.432;2023-06-24T11:37:47;99578.59;;;28.04;27.85
50226;BME280;36113;50.742;6.432;2023-06-24T11:40:13;99551.41;;;27.07;29.26
50226;BME280;36113;50.742;6.432;2023-06-24T11:42:42;99581.84;;;26.96;29.37
50226;BME280;36113;50.742;6.432;2023-06-24T11:45:11;99574.97;;;26.58;30.54
50226;BME280;36113;50.742;6.432;2023-06-24T11:47:38;99584.09;;;27.07;30.97
50226;BME280;36113;50.742;6.432;2023-06-24T11:50:07;99543.31;;;27.37;30.76
50226;BME280;36113;50.742;6.432;2023-06-24T11:52:44;99580.19;;;28.05;30.98
50226;BME280;36113;50.742;6.432;2023-06-24T11:55:16;99569.09;;;28.32;30.58
50226;BME280;36113;50.742;6.432;2023-06-24T12:00:24;99528.13;;;28.16;29.48
50226;BME280;36113;50.742;6.432;2023-06-24T12:02:52;99559.53;;;28.33;29.37
50226;BME280;36113;50.742;6.432;2023-06-24T12:05:23;99548.72;;;28.31;28.87
50226;BME280;36113;50.742;6.432;2023-06-24T12:07:54;99554.34;;;28.54;29.53
50226;BME280;36113;50.742;6.432;2023-06-24T12:10:19;99553.16;;;28.82;30.18
50226;BME280;36113;50.742;6.432;2023-06-24T12:12:44;99549.16;;;28.33;28.44
50226;BME280;36113;50.742;6.432;2023-06-24T12:15:10;99511.00;;;27.98;29.23
50226;BME280;36113;50.742;6.432;2023-06-24T12:17:35;99536.25;;;28.48;29.19
50226;BME280;36113;50.742;6.432;2023-06-24T12:20:00;99541.44;;;28.73;29.08
50226;BME280;36113;50.742;6.432;2023-06-24T12:22:25;99514.84;;;28.86;29.28
50226;BME280;36113;50.742;6.432;2023-06-24T12:24:52;99550.88;;;29.14;28.41
50226;BME280;36113;50.742;6.432;2023-06-24T12:27:17;99532.56;;;29.20;28.65
50226;BME280;36113;50.742;6.432;2023-06-24T12:29:42;99541.63;;;29.40;28.71
50226;BME280;36113;50.742;6.432;2023-06-24T12:32:08;99522.03;;;29.44;28.08
50226;BME280;36113;50.742;6.432;2023-06-24T12:34:33;99536.44;;;29.12;28.21
50226;BME280;36113;50.742;6.432;2023-06-24T12:36:58;99497.81;;;28.68;27.23
50226;BME280;36113;50.742;6.432;2023-06-24T12:39:24;99490.81;;;28.55;29.01
50226;BME280;36113;50.742;6.432;2023-06-24T12:41:49;99520.81;;;28.35;28.69
50226;BME280;36113;50.742;6.432;2023-06-24T12:44:14;99499.28;;;28.58;28.73
50226;BME280;36113;50.742;6.432;2023-06-24T12:46:40;99518.31;;;29.06;28.48
50226;BME280;36113;50.742;6.432;2023-06-24T12:49:05;99522.25;;;29.28;27.15
50226;BME280;36113;50.742;6.432;2023-06-24T12:51:31;99516.16;;;29.22;27.24
50226;BME280;36113;50.742;6.432;2023-06-24T12:53:56;99521.59;;;29.38;27.85
50226;BME280;36113;50.742;6.432;2023-06-24T12:56:21;99520.88;;;29.45;27.03
50226;BME280;36113;50.742;6.432;2023-06-24T12:58:46;99454.22;;;28.97;26.08
50226;BME280;36113;50.742;6.432;2023-06-24T13:01:12;99489.97;;;28.27;26.87
50226;BME280;36113;50.742;6.432;2023-06-24T13:03:37;99489.97;;;28.27;27.44
50226;BME280;36113;50.742;6.432;2023-06-24T13:06:03;99520.00;;;27.88;27.08
50226;BME280;36113;50.742;6.432;2023-06-24T13:08:28;99520.66;;;27.23;28.45
50226;BME280;36113;50.742;6.432;2023-06-24T13:10:53;99490.94;;;27.31;28.57
50226;BME280;36113;50.742;6.432;2023-06-24T13:13:18;99525.69;;;27.53;28.37